sensor_id;sensor_type;location;lat;lon;timestamp;temperature;humidity
67893;DHT22;54688;52.376;16.744;2022-12-29T00:01:15;5.6;80.8
67893;DHT22;54688;52.376;16.744;2022-12-29T00:04:18;5.6;80.5
67893;DHT22;54688;52.376;16.744;2022-12-29T00:07:20;5.5;80.4
67893;DHT22;54688;52.376;16.744;2022-12-29T00:10:23;5.4;80
67893;DHT22;54688;52.376;16.744;2022-12-29T00:13:25;5.4;80
67893;DHT22;54688;52.376;16.744;2022-12-29T00:16:27;5.4;80.1
67893;DHT22;54688;52.376;16.744;2022-12-29T00:19:30;5.4;80.2
67893;DHT22;54688;52.376;16.744;2022-12-29T00:22:33;5.3;80.1
67893;DHT22;54688;52.376;16.744;2022-12-29T00:25:35;5.3;80.2
67893;DHT22;54688;52.376;16.744;2022-12-29T00:28:37;5.3;80.1
67893;DHT22;54688;52.376;16.744;2022-12-29T00:31:40;5.3;80.4
67893;DHT22;54688;52.376;16.744;2022-12-29T00:34:42;5.2;80.1
67893;DHT22;54688;52.376;16.744;2022-12-29T00:37:46;5.2;80.1
67893;DHT22;54688;52.376;16.744;2022-12-29T00:40:50;5.2;80.1
67893;DHT22;54688;52.376;16.744;2022-12-29T00:43:52;5.2;80.2
67893;DHT22;54688;52.376;16.744;2022-12-29T00:46:54;5.2;80.7
67893;DHT22;54688;52.376;16.744;2022-12-29T00:49:56;5.2;80.1
67893;DHT22;54688;52.376;16.744;2022-12-29T00:52:59;5.2;80.1
67893;DHT22;54688;52.376;16.744;2022-12-29T00:56:01;5.2;80.1
67893;DHT22;54688;52.376;16.744;2022-12-29T00:59:04;5.2;79.8
67893;DHT22;54688;52.376;16.744;2022-12-29T01:02:07;5.3;79.3
67893;DHT22;54688;52.376;16.744;2022-12-29T01:05:10;5.3;79.6
67893;DHT22;54688;52.376;16.744;2022-12-29T01:08:12;5.3;79.5
67893;DHT22;54688;52.376;16.744;2022-12-29T01:11:14;5.3;79.1
67893;DHT22;54688;52.376;16.744;2022-12-29T01:14:17;5.4;78.3
67893;DHT22;54688;52.376;16.744;2022-12-29T01:17:21;5.4;78.8
67893;DHT22;54688;52.376;16.744;2022-12-29T01:20:23;5.4;78.7
67893;DHT22;54688;52.376;16.744;2022-12-29T01:23:25;5.4;78.5
67893;DHT22;54688;52.376;16.744;2022-12-29T01:26:27;5.5;78.4
67893;DHT22;54688;52.376;16.744;2022-12-29T01:29:29;5.5;78.5
67893;DHT22;54688;52.376;16.744;2022-12-29T01:32:31;5.5;78.2
67893;DHT22;54688;52.376;16.744;2022-12-29T01:35:33;5.6;78.1
67893;DHT22;54688;52.376;16.744;2022-12-29T01:38:36;5.6;77.6
67893;DHT22;54688;52.376;16.744;2022-12-29T01:41:38;5.6;77.4
67893;DHT22;54688;52.376;16.744;2022-12-29T01:44:47;5.7;77
67893;DHT22;54688;52.376;16.744;2022-12-29T01:47:53;5.8;76.1
67893;DHT22;54688;52.376;16.744;2022-12-29T01:50:59;5.8;76.1
67893;DHT22;54688;52.376;16.744;2022-12-29T01:54:02;5.9;76
67893;DHT22;54688;52.376;16.744;2022-12-29T01:57:11;5.9;76
67893;DHT22;54688;52.376;16.744;2022-12-29T02:00:18;5.9;75.5
67893;DHT22;54688;52.376;16.744;2022-12-29T02:03:21;6;75.8
67893;DHT22;54688;52.376;16.744;2022-12-29T02:06:28;6;75.6
67893;DHT22;54688;52.376;16.744;2022-12-29T02:09:35;6;75.5
67893;DHT22;54688;52.376;16.744;2022-12-29T02:12:37;6;76
67893;DHT22;54688;52.376;16.744;2022-12-29T02:15:42;6;76.1
67893;DHT22;54688;52.376;16.744;2022-12-29T02:18:57;6;76.3
67893;DHT22;54688;52.376;16.744;2022-12-29T02:22:10;6;76.5
67893;DHT22;54688;52.376;16.744;2022-12-29T02:25:23;6;76.9
67893;DHT22;54688;52.376;16.744;2022-12-29T02:28:46;5.9;78
67893;DHT22;54688;52.376;16.744;2022-12-29T02:32:05;5.9;78.3
67893;DHT22;54688;52.376;16.744;2022-12-29T02:35:15;5.9;78.5
67893;DHT22;54688;52.376;16.744;2022-12-29T02:38:28;5.8;79.1
67893;DHT22;54688;52.376;16.744;2022-12-29T02:41:44;5.8;79.6
67893;DHT22;54688;52.376;16.744;2022-12-29T02:44:54;5.8;80.1
67893;DHT22;54688;52.376;16.744;2022-12-29T02:48:04;5.7;80.4
67893;DHT22;54688;52.376;16.744;2022-12-29T02:51:14;5.7;80.5
67893;DHT22;54688;52.376;16.744;2022-12-29T02:54:21;5.7;80.9
67893;DHT22;54688;52.376;16.744;2022-12-29T02:57:28;5.6;81.4
67893;DHT22;54688;52.376;16.744;2022-12-29T03:03:36;5.6;81.6
67893;DHT22;54688;52.376;16.744;2022-12-29T03:06:51;5.5;81.6
67893;DHT22;54688;52.376;16.744;2022-12-29T03:09:59;5.5;81.8
67893;DHT22;54688;52.376;16.744;2022-12-29T03:13:10;5.5;81.8
67893;DHT22;54688;52.376;16.744;2022-12-29T03:16:21;5.4;81.6
67893;DHT22;54688;52.376;16.744;2022-12-29T03:19:28;5.5;81.8
67893;DHT22;54688;52.376;16.744;2022-12-29T03:22:35;5.5;82.1
67893;DHT22;54688;52.376;16.744;2022-12-29T03:25:44;5.4;82.1
67893;DHT22;54688;52.376;16.744;2022-12-29T03:28:50;5.4;82.1
67893;DHT22;54688;52.376;16.744;2022-12-29T03:31:55;5.4;82.1
67893;DHT22;54688;52.376;16.744;2022-12-29T03:35:00;5.5;82.6
67893;DHT22;54688;52.376;16.744;2022-12-29T03:38:06;5.5;82.8
67893;DHT22;54688;52.376;16.744;2022-12-29T03:41:14;5.4;82.5
67893;DHT22;54688;52.376;16.744;2022-12-29T03:44:19;5.5;82.3
67893;DHT22;54688;52.376;16.744;2022-12-29T03:47:22;5.5;82.3
67893;DHT22;54688;52.376;16.744;2022-12-29T03:50:26;5.5;82.3
67893;DHT22;54688;52.376;16.744;2022-12-29T03:53:27;5.5;82.1
67893;DHT22;54688;52.376;16.744;2022-12-29T03:56:29;5.5;82.2
67893;DHT22;54688;52.376;16.744;2022-12-29T03:59:31;5.5;82.2
67893;DHT22;54688;52.376;16.744;2022-12-29T04:02:34;5.5;82.4
67893;DHT22;54688;52.376;16.744;2022-12-29T04:05:37;5.5;82.2
67893;DHT22;54688;52.376;16.744;2022-12-29T04:08:39;5.4;82.6
67893;DHT22;54688;52.376;16.744;2022-12-29T04:11:41;5.4;82.1
67893;DHT22;54688;52.376;16.744;2022-12-29T04:14:43;5.4;82.1
67893;DHT22;54688;52.376;16.744;2022-12-29T04:17:45;5.4;82.1
67893;DHT22;54688;52.376;16.744;2022-12-29T04:20:48;5.4;82.1
67893;DHT22;54688;52.376;16.744;2022-12-29T04:23:50;5.4;81.5
67893;DHT22;54688;52.376;16.744;2022-12-29T04:26:52;5.4;81.7
67893;DHT22;54688;52.376;16.744;2022-12-29T04:29:55;5.4;81.5
67893;DHT22;54688;52.376;16.744;2022-12-29T04:32:58;5.4;81.2
67893;DHT22;54688;52.376;16.744;2022-12-29T04:36:00;5.4;81.3
67893;DHT22;54688;52.376;16.744;2022-12-29T04:39:03;5.4;81.2
67893;DHT22;54688;52.376;16.744;2022-12-29T04:42:05;5.4;81.2
67893;DHT22;54688;52.376;16.744;2022-12-29T04:45:08;5.4;81.2
67893;DHT22;54688;52.376;16.744;2022-12-29T04:48:11;5.4;80.7
67893;DHT22;54688;52.376;16.744;2022-12-29T04:51:14;5.5;80.4
67893;DHT22;54688;52.376;16.744;2022-12-29T04:54:16;5.5;80.4
67893;DHT22;54688;52.376;16.744;2022-12-29T04:57:18;5.5;80.5
67893;DHT22;54688;52.376;16.744;2022-12-29T05:00:21;5.6;80.3
67893;DHT22;54688;52.376;16.744;2022-12-29T05:03:23;5.5;80.1
67893;DHT22;54688;52.376;16.744;2022-12-29T05:06:25;5.6;80.5
67893;DHT22;54688;52.376;16.744;2022-12-29T05:09:28;5.6;80.1
67893;DHT22;54688;52.376;16.744;2022-12-29T05:12:30;5.6;80.2
67893;DHT22;54688;52.376;16.744;2022-12-29T05:15:32;5.6;79.7
67893;DHT22;54688;52.376;16.744;2022-12-29T05:18:34;5.6;79.8
67893;DHT22;54688;52.376;16.744;2022-12-29T05:24:35;5.6;79.4
67893;DHT22;54688;52.376;16.744;2022-12-29T05:27:38;5.6;79.4
67893;DHT22;54688;52.376;16.744;2022-12-29T05:30:40;5.5;79.4
67893;DHT22;54688;52.376;16.744;2022-12-29T05:33:42;5.4;79.6
67893;DHT22;54688;52.376;16.744;2022-12-29T05:36:45;5.3;79.7
67893;DHT22;54688;52.376;16.744;2022-12-29T05:39:48;5.2;79.9
67893;DHT22;54688;52.376;16.744;2022-12-29T05:42:50;5.2;80.4
67893;DHT22;54688;52.376;16.744;2022-12-29T05:45:52;5.2;80.8
67893;DHT22;54688;52.376;16.744;2022-12-29T05:48:56;5.2;80.9
67893;DHT22;54688;52.376;16.744;2022-12-29T05:51:58;5.2;80.9
67893;DHT22;54688;52.376;16.744;2022-12-29T05:55:01;5.3;80.9
67893;DHT22;54688;52.376;16.744;2022-12-29T05:58:03;5.3;80.7
67893;DHT22;54688;52.376;16.744;2022-12-29T06:01:06;5.4;80.6
67893;DHT22;54688;52.376;16.744;2022-12-29T06:04:09;5.4;80.6
67893;DHT22;54688;52.376;16.744;2022-12-29T06:07:11;5.5;80.4
67893;DHT22;54688;52.376;16.744;2022-12-29T06:10:14;5.5;80.2
67893;DHT22;54688;52.376;16.744;2022-12-29T06:13:17;5.6;80.6
67893;DHT22;54688;52.376;16.744;2022-12-29T06:16:19;5.6;80.2
67893;DHT22;54688;52.376;16.744;2022-12-29T06:19:21;5.6;80.2
67893;DHT22;54688;52.376;16.744;2022-12-29T06:22:23;5.6;80.2
67893;DHT22;54688;52.376;16.744;2022-12-29T06:25:25;5.6;80.2
67893;DHT22;54688;52.376;16.744;2022-12-29T06:28:27;5.6;80.1
67893;DHT22;54688;52.376;16.744;2022-12-29T06:31:30;5.6;80
67893;DHT22;54688;52.376;16.744;2022-12-29T06:34:32;5.7;80.1
67893;DHT22;54688;52.376;16.744;2022-12-29T06:37:34;5.7;80
67893;DHT22;54688;52.376;16.744;2022-12-29T06:40:37;5.7;79.9
67893;DHT22;54688;52.376;16.744;2022-12-29T06:43:39;5.7;79.7
67893;DHT22;54688;52.376;16.744;2022-12-29T06:46:41;5.8;79.8
67893;DHT22;54688;52.376;16.744;2022-12-29T06:49:44;5.8;79.7
67893;DHT22;54688;52.376;16.744;2022-12-29T06:52:46;5.9;79.6
67893;DHT22;54688;52.376;16.744;2022-12-29T06:55:49;5.9;79.5
67893;DHT22;54688;52.376;16.744;2022-12-29T06:58:52;5.9;79.7
67893;DHT22;54688;52.376;16.744;2022-12-29T07:01:54;5.9;79.5
67893;DHT22;54688;52.376;16.744;2022-12-29T07:04:56;5.9;79.5
67893;DHT22;54688;52.376;16.744;2022-12-29T07:07:58;5.9;79.5
67893;DHT22;54688;52.376;16.744;2022-12-29T07:11:01;6;79.5
67893;DHT22;54688;52.376;16.744;2022-12-29T07:14:04;6;79.6
67893;DHT22;54688;52.376;16.744;2022-12-29T07:17:06;6;79.3
67893;DHT22;54688;52.376;16.744;2022-12-29T07:20:09;6.1;79.3
67893;DHT22;54688;52.376;16.744;2022-12-29T07:23:11;6.1;79.1
67893;DHT22;54688;52.376;16.744;2022-12-29T07:26:14;6.1;78.9
67893;DHT22;54688;52.376;16.744;2022-12-29T07:29:17;6.2;78.5
67893;DHT22;54688;52.376;16.744;2022-12-29T07:32:19;6.3;78.5
67893;DHT22;54688;52.376;16.744;2022-12-29T07:35:22;6.3;78.3
67893;DHT22;54688;52.376;16.744;2022-12-29T07:38:24;6.4;77.9
67893;DHT22;54688;52.376;16.744;2022-12-29T07:41:27;6.5;77.3
67893;DHT22;54688;52.376;16.744;2022-12-29T07:44:30;6.5;77.2
67893;DHT22;54688;52.376;16.744;2022-12-29T07:47:31;6.5;77
67893;DHT22;54688;52.376;16.744;2022-12-29T07:50:34;6.6;77.6
67893;DHT22;54688;52.376;16.744;2022-12-29T07:53:37;6.6;76.8
67893;DHT22;54688;52.376;16.744;2022-12-29T07:56:39;6.7;76.4
67893;DHT22;54688;52.376;16.744;2022-12-29T07:59:42;6.7;75.3
67893;DHT22;54688;52.376;16.744;2022-12-29T08:02:44;6.8;76.3
67893;DHT22;54688;52.376;16.744;2022-12-29T08:05:47;6.8;76
67893;DHT22;54688;52.376;16.744;2022-12-29T08:08:49;6.8;75.3
67893;DHT22;54688;52.376;16.744;2022-12-29T08:11:51;6.9;75.6
67893;DHT22;54688;52.376;16.744;2022-12-29T08:14:53;6.9;75.5
67893;DHT22;54688;52.376;16.744;2022-12-29T08:17:56;6.9;75.7
67893;DHT22;54688;52.376;16.744;2022-12-29T08:21:00;7;75.4
67893;DHT22;54688;52.376;16.744;2022-12-29T08:24:03;7;75.4
67893;DHT22;54688;52.376;16.744;2022-12-29T08:27:06;7;75.4
67893;DHT22;54688;52.376;16.744;2022-12-29T08:30:09;7.1;75
67893;DHT22;54688;52.376;16.744;2022-12-29T08:33:12;7.1;75.1
67893;DHT22;54688;52.376;16.744;2022-12-29T08:36:14;7.2;75.2
67893;DHT22;54688;52.376;16.744;2022-12-29T08:42:16;7.3;75
67893;DHT22;54688;52.376;16.744;2022-12-29T08:45:18;7.3;74.5
67893;DHT22;54688;52.376;16.744;2022-12-29T08:48:21;7.3;74.7
67893;DHT22;54688;52.376;16.744;2022-12-29T08:51:24;7.3;74.7
67893;DHT22;54688;52.376;16.744;2022-12-29T08:54:26;7.3;74.4
67893;DHT22;54688;52.376;16.744;2022-12-29T08:57:28;7.4;74.5
67893;DHT22;54688;52.376;16.744;2022-12-29T09:00:30;7.5;74.3
67893;DHT22;54688;52.376;16.744;2022-12-29T09:03:33;7.5;74.7
67893;DHT22;54688;52.376;16.744;2022-12-29T09:06:35;7.6;74.7
67893;DHT22;54688;52.376;16.744;2022-12-29T09:09:37;7.6;74.7
67893;DHT22;54688;52.376;16.744;2022-12-29T09:12:40;7.7;74.5
67893;DHT22;54688;52.376;16.744;2022-12-29T09:15:43;7.8;74.5
67893;DHT22;54688;52.376;16.744;2022-12-29T09:18:45;7.8;74.3
67893;DHT22;54688;52.376;16.744;2022-12-29T09:21:48;7.8;74.6
67893;DHT22;54688;52.376;16.744;2022-12-29T09:24:51;7.8;73.8
67893;DHT22;54688;52.376;16.744;2022-12-29T09:27:53;7.8;74.2
67893;DHT22;54688;52.376;16.744;2022-12-29T09:30:55;7.8;74.2
67893;DHT22;54688;52.376;16.744;2022-12-29T09:33:59;7.9;74.8
67893;DHT22;54688;52.376;16.744;2022-12-29T09:37:01;8;73.8
67893;DHT22;54688;52.376;16.744;2022-12-29T09:40:04;8.1;73.9
67893;DHT22;54688;52.376;16.744;2022-12-29T09:43:19;8.2;73.7
67893;DHT22;54688;52.376;16.744;2022-12-29T09:46:31;8.2;73.7
67893;DHT22;54688;52.376;16.744;2022-12-29T09:49:39;8.2;74
67893;DHT22;54688;52.376;16.744;2022-12-29T09:52:46;8.1;72.9
67893;DHT22;54688;52.376;16.744;2022-12-29T09:55:53;8.1;73
67893;DHT22;54688;52.376;16.744;2022-12-29T09:58:58;8;73.1
67893;DHT22;54688;52.376;16.744;2022-12-29T10:02:08;8;73.2
67893;DHT22;54688;52.376;16.744;2022-12-29T10:05:26;8;73.1
67893;DHT22;54688;52.376;16.744;2022-12-29T10:08:37;8;73.2
67893;DHT22;54688;52.376;16.744;2022-12-29T10:11:48;8.1;73.2
67893;DHT22;54688;52.376;16.744;2022-12-29T10:15:03;8.1;73.4
67893;DHT22;54688;52.376;16.744;2022-12-29T10:18:19;8.1;73.3
67893;DHT22;54688;52.376;16.744;2022-12-29T10:24:33;8.3;72.8
67893;DHT22;54688;52.376;16.744;2022-12-29T10:27:38;8.3;72.3
67893;DHT22;54688;52.376;16.744;2022-12-29T10:30:41;8.5;72.6
67893;DHT22;54688;52.376;16.744;2022-12-29T10:33:46;8.6;71.9
67893;DHT22;54688;52.376;16.744;2022-12-29T10:36:53;8.7;71.4
67893;DHT22;54688;52.376;16.744;2022-12-29T10:39:59;8.7;71.8
67893;DHT22;54688;52.376;16.744;2022-12-29T10:43:17;8.7;70.6
67893;DHT22;54688;52.376;16.744;2022-12-29T10:46:27;8.7;69.8
67893;DHT22;54688;52.376;16.744;2022-12-29T10:52:31;8.7;71.1
67893;DHT22;54688;52.376;16.744;2022-12-29T10:55:35;8.7;71.4
67893;DHT22;54688;52.376;16.744;2022-12-29T10:58:40;8.8;71.5
67893;DHT22;54688;52.376;16.744;2022-12-29T11:01:46;8.9;71.2
67893;DHT22;54688;52.376;16.744;2022-12-29T11:04:59;9;71.3
67893;DHT22;54688;52.376;16.744;2022-12-29T11:08:08;9.1;70.8
67893;DHT22;54688;52.376;16.744;2022-12-29T11:11:14;9.1;70.1
67893;DHT22;54688;52.376;16.744;2022-12-29T11:14:26;9.1;70.3
67893;DHT22;54688;52.376;16.744;2022-12-29T11:17:30;9.1;70.6
67893;DHT22;54688;52.376;16.744;2022-12-29T11:20:45;9.2;70.8
67893;DHT22;54688;52.376;16.744;2022-12-29T11:23:46;9.2;70.3
67893;DHT22;54688;52.376;16.744;2022-12-29T11:27:08;9.3;70.3
67893;DHT22;54688;52.376;16.744;2022-12-29T11:30:21;9.4;69.7
67893;DHT22;54688;52.376;16.744;2022-12-29T11:33:27;9.5;69.3
67893;DHT22;54688;52.376;16.744;2022-12-29T11:36:29;9.6;69.1
67893;DHT22;54688;52.376;16.744;2022-12-29T11:39:34;9.7;68.9
67893;DHT22;54688;52.376;16.744;2022-12-29T11:42:40;9.7;69.1
67893;DHT22;54688;52.376;16.744;2022-12-29T11:45:49;9.7;68.5
67893;DHT22;54688;52.376;16.744;2022-12-29T11:48:54;9.7;69.2
67893;DHT22;54688;52.376;16.744;2022-12-29T11:51:58;9.6;68.3
67893;DHT22;54688;52.376;16.744;2022-12-29T11:55:02;9.5;68.9
67893;DHT22;54688;52.376;16.744;2022-12-29T11:58:06;9.5;69.7
67893;DHT22;54688;52.376;16.744;2022-12-29T12:01:11;9.5;69.6
67893;DHT22;54688;52.376;16.744;2022-12-29T12:04:18;9.4;69.5
67893;DHT22;54688;52.376;16.744;2022-12-29T12:07:27;9.5;70.1
67893;DHT22;54688;52.376;16.744;2022-12-29T12:10:36;9.5;69.7
67893;DHT22;54688;52.376;16.744;2022-12-29T12:13:46;9.4;68.8
67893;DHT22;54688;52.376;16.744;2022-12-29T12:16:59;9.4;69.7
67893;DHT22;54688;52.376;16.744;2022-12-29T12:20:12;9.4;69.6
67893;DHT22;54688;52.376;16.744;2022-12-29T12:23:26;9.4;70.1
67893;DHT22;54688;52.376;16.744;2022-12-29T12:26:34;9.4;69.8
67893;DHT22;54688;52.376;16.744;2022-12-29T12:29:43;9.4;69.7
67893;DHT22;54688;52.376;16.744;2022-12-29T12:32:54;9.5;69.6
67893;DHT22;54688;52.376;16.744;2022-12-29T12:36:06;9.5;69.6
67893;DHT22;54688;52.376;16.744;2022-12-29T12:39:19;9.5;69.9
67893;DHT22;54688;52.376;16.744;2022-12-29T12:42:31;9.6;69.7
67893;DHT22;54688;52.376;16.744;2022-12-29T12:48:47;9.6;68.9
67893;DHT22;54688;52.376;16.744;2022-12-29T12:52:04;9.7;68.9
67893;DHT22;54688;52.376;16.744;2022-12-29T12:55:18;9.7;68.7
67893;DHT22;54688;52.376;16.744;2022-12-29T12:58:34;9.7;68.5
67893;DHT22;54688;52.376;16.744;2022-12-29T13:01:47;9.7;68.5
67893;DHT22;54688;52.376;16.744;2022-12-29T13:05:03;9.6;68.4
67893;DHT22;54688;52.376;16.744;2022-12-29T13:08:22;9.6;67.2
67893;DHT22;54688;52.376;16.744;2022-12-29T13:11:37;9.6;68.3
67893;DHT22;54688;52.376;16.744;2022-12-29T13:14:51;9.6;68.3
67893;DHT22;54688;52.376;16.744;2022-12-29T13:18:00;9.7;68.6
67893;DHT22;54688;52.376;16.744;2022-12-29T13:21:10;9.8;67.5
67893;DHT22;54688;52.376;16.744;2022-12-29T13:24:19;9.8;67.8
67893;DHT22;54688;52.376;16.744;2022-12-29T13:27:28;9.9;67.4
67893;DHT22;54688;52.376;16.744;2022-12-29T13:30:38;9.9;67
67893;DHT22;54688;52.376;16.744;2022-12-29T13:33:48;9.9;66.9
67893;DHT22;54688;52.376;16.744;2022-12-29T13:36:58;9.9;66.7
67893;DHT22;54688;52.376;16.744;2022-12-29T13:40:02;9.9;67
67893;DHT22;54688;52.376;16.744;2022-12-29T13:43:12;9.9;66.6
67893;DHT22;54688;52.376;16.744;2022-12-29T13:46:19;9.8;66.8
67893;DHT22;54688;52.376;16.744;2022-12-29T13:49:25;9.8;66.8
67893;DHT22;54688;52.376;16.744;2022-12-29T13:52:28;9.8;67.3
67893;DHT22;54688;52.376;16.744;2022-12-29T13:55:37;9.7;66
67893;DHT22;54688;52.376;16.744;2022-12-29T13:58:48;9.7;67.3
67893;DHT22;54688;52.376;16.744;2022-12-29T14:01:58;9.7;67.5
67893;DHT22;54688;52.376;16.744;2022-12-29T14:05:05;9.7;67.7
67893;DHT22;54688;52.376;16.744;2022-12-29T14:08:29;9.6;67.6
67893;DHT22;54688;52.376;16.744;2022-12-29T14:11:38;9.6;67.8
67893;DHT22;54688;52.376;16.744;2022-12-29T14:14:42;9.6;67.6
67893;DHT22;54688;52.376;16.744;2022-12-29T14:17:44;9.5;67.9
67893;DHT22;54688;52.376;16.744;2022-12-29T14:21:07;9.5;67.8
67893;DHT22;54688;52.376;16.744;2022-12-29T14:24:26;9.5;68
67893;DHT22;54688;52.376;16.744;2022-12-29T14:27:42;9.5;67.4
67893;DHT22;54688;52.376;16.744;2022-12-29T14:30:54;9.6;67.5
67893;DHT22;54688;52.376;16.744;2022-12-29T14:34:15;9.6;66.5
67893;DHT22;54688;52.376;16.744;2022-12-29T14:37:23;9.6;67.3
67893;DHT22;54688;52.376;16.744;2022-12-29T14:40:26;9.6;67.6
67893;DHT22;54688;52.376;16.744;2022-12-29T14:43:28;9.6;68.3
67893;DHT22;54688;52.376;16.744;2022-12-29T14:47:04;9.5;68.5
67893;DHT22;54688;52.376;16.744;2022-12-29T14:50:12;9.4;68.7
67893;DHT22;54688;52.376;16.744;2022-12-29T14:53:40;9.4;69
67893;DHT22;54688;52.376;16.744;2022-12-29T14:56:45;9.3;69
67893;DHT22;54688;52.376;16.744;2022-12-29T14:59:48;9.2;69.1
67893;DHT22;54688;52.376;16.744;2022-12-29T15:03:00;9.2;68.6
67893;DHT22;54688;52.376;16.744;2022-12-29T15:06:07;9.1;69.5
67893;DHT22;54688;52.376;16.744;2022-12-29T15:09:14;9.1;69.4
67893;DHT22;54688;52.376;16.744;2022-12-29T15:12:28;9.1;68.5
67893;DHT22;54688;52.376;16.744;2022-12-29T15:15:36;9.1;69.9
67893;DHT22;54688;52.376;16.744;2022-12-29T15:18:43;9.1;68.9
67893;DHT22;54688;52.376;16.744;2022-12-29T15:21:45;9.1;69
67893;DHT22;54688;52.376;16.744;2022-12-29T15:24:49;9;69.1
67893;DHT22;54688;52.376;16.744;2022-12-29T15:27:55;9;68.5
67893;DHT22;54688;52.376;16.744;2022-12-29T15:31:03;8.9;70.1
67893;DHT22;54688;52.376;16.744;2022-12-29T15:34:09;8.9;69.1
67893;DHT22;54688;52.376;16.744;2022-12-29T15:37:16;8.8;69.9
67893;DHT22;54688;52.376;16.744;2022-12-29T15:40:21;8.8;69.1
67893;DHT22;54688;52.376;16.744;2022-12-29T15:43:43;8.8;68.9
67893;DHT22;54688;52.376;16.744;2022-12-29T15:46:52;8.8;69.3
67893;DHT22;54688;52.376;16.744;2022-12-29T15:49:57;8.8;69.5
67893;DHT22;54688;52.376;16.744;2022-12-29T15:53:09;8.8;69.8
67893;DHT22;54688;52.376;16.744;2022-12-29T15:56:12;8.6;70
67893;DHT22;54688;52.376;16.744;2022-12-29T15:59:22;8.7;69.6
67893;DHT22;54688;52.376;16.744;2022-12-29T16:02:25;8.6;69.8
67893;DHT22;54688;52.376;16.744;2022-12-29T16:05:32;8.6;69.4
67893;DHT22;54688;52.376;16.744;2022-12-29T16:08:37;8.6;69.8
67893;DHT22;54688;52.376;16.744;2022-12-29T16:11:41;8.6;69.4
67893;DHT22;54688;52.376;16.744;2022-12-29T16:14:48;8.6;69.6
67893;DHT22;54688;52.376;16.744;2022-12-29T16:17:54;8.6;68.7
67893;DHT22;54688;52.376;16.744;2022-12-29T16:20:57;8.5;69.6
67893;DHT22;54688;52.376;16.744;2022-12-29T16:23:59;8.5;69.9
67893;DHT22;54688;52.376;16.744;2022-12-29T16:27:06;8.5;69.9
67893;DHT22;54688;52.376;16.744;2022-12-29T16:30:16;8.4;70.1
67893;DHT22;54688;52.376;16.744;2022-12-29T16:33:32;8.4;70
67893;DHT22;54688;52.376;16.744;2022-12-29T16:36:40;8.3;70.1
67893;DHT22;54688;52.376;16.744;2022-12-29T16:39:53;8.3;71.5
67893;DHT22;54688;52.376;16.744;2022-12-29T16:42:56;8.3;69.7
67893;DHT22;54688;52.376;16.744;2022-12-29T16:46:15;8.3;70.8
67893;DHT22;54688;52.376;16.744;2022-12-29T16:49:20;8.3;70.3
67893;DHT22;54688;52.376;16.744;2022-12-29T16:52:23;8.2;70
67893;DHT22;54688;52.376;16.744;2022-12-29T16:55:31;8.2;70.4
67893;DHT22;54688;52.376;16.744;2022-12-29T16:58:34;8.2;70.4
67893;DHT22;54688;52.376;16.744;2022-12-29T17:01:37;8.2;70.5
67893;DHT22;54688;52.376;16.744;2022-12-29T17:04:40;8.1;70.2
67893;DHT22;54688;52.376;16.744;2022-12-29T17:07:42;8.1;70.8
67893;DHT22;54688;52.376;16.744;2022-12-29T17:10:46;8.1;70.8
67893;DHT22;54688;52.376;16.744;2022-12-29T17:13:49;8.1;71
67893;DHT22;54688;52.376;16.744;2022-12-29T17:16:51;8.1;70.2
67893;DHT22;54688;52.376;16.744;2022-12-29T17:19:54;8.1;71.3
67893;DHT22;54688;52.376;16.744;2022-12-29T17:22:58;8.2;70.9
67893;DHT22;54688;52.376;16.744;2022-12-29T17:26:01;8.2;71
67893;DHT22;54688;52.376;16.744;2022-12-29T17:29:03;8.3;71
67893;DHT22;54688;52.376;16.744;2022-12-29T17:32:06;8.3;70.7
67893;DHT22;54688;52.376;16.744;2022-12-29T17:35:14;8.3;70.8
67893;DHT22;54688;52.376;16.744;2022-12-29T17:38:18;8.3;70.3
67893;DHT22;54688;52.376;16.744;2022-12-29T17:41:21;8.3;71
67893;DHT22;54688;52.376;16.744;2022-12-29T17:44:24;8.3;70
67893;DHT22;54688;52.376;16.744;2022-12-29T17:47:27;8.4;70.1
67893;DHT22;54688;52.376;16.744;2022-12-29T17:53:29;8.3;69.5
67893;DHT22;54688;52.376;16.744;2022-12-29T17:56:32;8.3;70
67893;DHT22;54688;52.376;16.744;2022-12-29T17:59:35;8.3;70
67893;DHT22;54688;52.376;16.744;2022-12-29T18:02:37;8.3;70
67893;DHT22;54688;52.376;16.744;2022-12-29T18:05:40;8.2;70
67893;DHT22;54688;52.376;16.744;2022-12-29T18:08:42;8.2;70.4
67893;DHT22;54688;52.376;16.744;2022-12-29T18:11:44;8.1;71.5
67893;DHT22;54688;52.376;16.744;2022-12-29T18:14:46;8.1;70.8
67893;DHT22;54688;52.376;16.744;2022-12-29T18:17:47;8.1;71.7
67893;DHT22;54688;52.376;16.744;2022-12-29T18:20:51;8;71.6
67893;DHT22;54688;52.376;16.744;2022-12-29T18:23:55;8;71.6
67893;DHT22;54688;52.376;16.744;2022-12-29T18:26:57;7.9;72
67893;DHT22;54688;52.376;16.744;2022-12-29T18:30:00;7.8;72.2
67893;DHT22;54688;52.376;16.744;2022-12-29T18:33:02;7.8;73.2
67893;DHT22;54688;52.376;16.744;2022-12-29T18:36:05;7.7;72.1
67893;DHT22;54688;52.376;16.744;2022-12-29T18:39:11;7.7;72.7
67893;DHT22;54688;52.376;16.744;2022-12-29T18:42:14;7.6;72.6
67893;DHT22;54688;52.376;16.744;2022-12-29T18:45:18;7.6;72.6
67893;DHT22;54688;52.376;16.744;2022-12-29T18:48:22;7.6;72.8
67893;DHT22;54688;52.376;16.744;2022-12-29T18:51:25;7.5;72.6
67893;DHT22;54688;52.376;16.744;2022-12-29T18:54:28;7.5;72.8
67893;DHT22;54688;52.376;16.744;2022-12-29T18:57:32;7.4;72.9
67893;DHT22;54688;52.376;16.744;2022-12-29T19:00:34;7.4;73.1
67893;DHT22;54688;52.376;16.744;2022-12-29T19:03:37;7.3;73.2
67893;DHT22;54688;52.376;16.744;2022-12-29T19:06:40;7.2;73.6
67893;DHT22;54688;52.376;16.744;2022-12-29T19:09:42;7.2;73.6
67893;DHT22;54688;52.376;16.744;2022-12-29T19:12:44;7;73.8
67893;DHT22;54688;52.376;16.744;2022-12-29T19:15:47;7;74.2
67893;DHT22;54688;52.376;16.744;2022-12-29T19:18:49;6.9;74.4
67893;DHT22;54688;52.376;16.744;2022-12-29T19:21:52;6.9;75.1
67893;DHT22;54688;52.376;16.744;2022-12-29T19:24:55;6.9;74.3
67893;DHT22;54688;52.376;16.744;2022-12-29T19:27:57;6.8;75
67893;DHT22;54688;52.376;16.744;2022-12-29T19:30:59;6.9;75.9
67893;DHT22;54688;52.376;16.744;2022-12-29T19:34:03;6.9;75.1
67893;DHT22;54688;52.376;16.744;2022-12-29T19:37:05;6.9;74.8
67893;DHT22;54688;52.376;16.744;2022-12-29T19:40:08;6.8;75.1
67893;DHT22;54688;52.376;16.744;2022-12-29T23:09:03;6.8;76.3
67893;DHT22;54688;52.376;16.744;2022-12-29T23:12:05;6.7;76.9
67893;DHT22;54688;52.376;16.744;2022-12-29T23:15:08;6.8;76.8
67893;DHT22;54688;52.376;16.744;2022-12-29T23:18:11;6.8;76.9
67893;DHT22;54688;52.376;16.744;2022-12-29T23:21:13;6.8;76.8
67893;DHT22;54688;52.376;16.744;2022-12-29T23:24:17;6.8;77.4
67893;DHT22;54688;52.376;16.744;2022-12-29T23:27:19;6.8;75.6
67893;DHT22;54688;52.376;16.744;2022-12-29T23:30:21;6.8;76.3
67893;DHT22;54688;52.376;16.744;2022-12-29T23:33:23;6.8;76
67893;DHT22;54688;52.376;16.744;2022-12-29T23:36:25;6.9;76.1
67893;DHT22;54688;52.376;16.744;2022-12-29T23:39:27;6.8;76
67893;DHT22;54688;52.376;16.744;2022-12-29T23:42:29;6.8;76.1
67893;DHT22;54688;52.376;16.744;2022-12-29T23:45:33;6.9;76.3
67893;DHT22;54688;52.376;16.744;2022-12-29T23:48:36;6.8;76.2
67893;DHT22;54688;52.376;16.744;2022-12-29T23:51:38;6.8;76.3
67893;DHT22;54688;52.376;16.744;2022-12-29T23:54:41;6.8;76.4
67893;DHT22;54688;52.376;16.744;2022-12-29T23:57:43;6.8;76.3
